Time;durP1;ratioP1;P1;durP2;ratioP2;P2;SDS_P1;SDS_P2;PMS_P1;PMS_P2;Temp;Humidity;BMP_temperature;BMP_pressure;BME280_temperature;BME280_humidity;BME280_pressure;Samples;Min_cycle;Max_cycle;Signal;HPM_P1;HPM_P2
2023/10/26 00:01:55;;;;;;;0.30;0.20;;;17.80;99.90;;;;;;5046328;28;20459;-84
2023/10/26 00:04:20;;;;;;;0.30;0.20;;;17.80;99.90;;;;;;5047917;28;20450;-79
2023/10/26 00:06:46;;;;;;;0.30;0.20;;;17.70;99.90;;;;;;5047923;28;20551;-79
2023/10/26 00:09:12;;;;;;;0.50;0.50;;;17.80;99.90;;;;;;5046142;28;20176;-85
2023/10/26 00:11:37;;;;;;;0.30;0.30;;;17.80;99.90;;;;;;5047293;28;20455;-79
2023/10/26 00:14:03;;;;;;;0.30;0.20;;;17.80;99.90;;;;;;5045991;28;20467;-79
2023/10/26 00:16:29;;;;;;;0.30;0.30;;;17.70;99.90;;;;;;5047620;28;20636;-84
2023/10/26 00:18:55;;;;;;;0.30;0.20;;;17.70;99.90;;;;;;5045984;28;20208;-79
2023/10/26 00:21:21;;;;;;;0.30;0.20;;;17.70;99.90;;;;;;5045181;28;20455;-84
2023/10/26 00:23:47;;;;;;;0.30;0.20;;;17.70;99.90;;;;;;5047305;28;20459;-83
2023/10/26 00:26:12;;;;;;;0.30;0.20;;;17.70;99.90;;;;;;5045991;28;20495;-80
2023/10/26 00:28:39;;;;;;;0.30;0.20;;;17.70;99.90;;;;;;5045777;28;20179;-79
2023/10/26 00:31:05;;;;;;;0.30;0.20;;;17.70;99.90;;;;;;5047396;28;20207;-84
2023/10/26 00:33:31;;;;;;;0.30;0.30;;;17.70;99.90;;;;;;5045228;28;20420;-79
2023/10/26 00:35:57;;;;;;;0.30;0.20;;;17.70;99.90;;;;;;5045620;28;20452;-85
2023/10/26 00:38:22;;;;;;;0.30;0.20;;;17.70;99.90;;;;;;5045664;28;20175;-79
2023/10/26 00:40:48;;;;;;;0.57;0.57;;;17.70;99.90;;;;;;5045793;28;20218;-79
2023/10/26 00:43:21;;;;;;;0.40;0.40;;;17.70;99.90;;;;;;5046618;28;20252;-83
2023/10/26 00:45:49;;;;;;;1.27;1.17;;;17.70;99.90;;;;;;5047209;28;20294;-85
2023/10/26 00:48:15;;;;;;;0.30;0.20;;;17.70;99.90;;;;;;5046411;28;20670;-84
2023/10/26 00:50:41;;;;;;;0.30;0.20;;;17.70;99.90;;;;;;5045581;28;20458;-84
2023/10/26 00:53:08;;;;;;;0.30;0.20;;;17.70;99.90;;;;;;5045139;28;20180;-85
2023/10/26 00:55:34;;;;;;;0.30;0.20;;;17.70;99.90;;;;;;5045276;28;20465;-85
2023/10/26 00:58:00;;;;;;;0.30;0.20;;;17.70;99.90;;;;;;5046294;28;20414;-82
2023/10/26 01:00:27;;;;;;;0.30;0.30;;;17.80;99.90;;;;;;5045178;28;20250;-80
2023/10/26 01:02:53;;;;;;;0.30;0.20;;;17.80;99.90;;;;;;5046737;28;20472;-80
2023/10/26 01:05:19;;;;;;;0.30;0.20;;;17.80;99.90;;;;;;5046475;28;20483;-80
2023/10/26 01:07:45;;;;;;;0.30;0.20;;;17.80;99.90;;;;;;5046224;28;20647;-81
2023/10/26 01:10:11;;;;;;;0.30;0.20;;;17.80;99.90;;;;;;5046472;28;20607;-80
2023/10/26 01:12:37;;;;;;;0.30;0.20;;;17.80;99.90;;;;;;5044845;28;20235;-80
2023/10/26 01:15:03;;;;;;;0.30;0.20;;;17.80;99.90;;;;;;5044890;28;20436;-85
2023/10/26 01:17:29;;;;;;;0.30;0.20;;;17.90;99.90;;;;;;5044885;28;20591;-85
2023/10/26 01:19:55;;;;;;;0.30;0.20;;;17.90;99.90;;;;;;5044866;28;20496;-85
2023/10/26 01:22:30;;;;;;;0.30;0.20;;;17.90;99.90;;;;;;5046229;28;20397;-80
2023/10/26 01:24:56;;;;;;;0.30;0.20;;;17.90;99.90;;;;;;5044101;28;20285;-85
2023/10/26 01:27:22;;;;;;;0.30;0.20;;;17.90;99.90;;;;;;5044607;28;20539;-80
2023/10/26 01:29:48;;;;;;;0.30;0.20;;;17.80;99.90;;;;;;5044875;28;20859;-86
2023/10/26 01:32:13;;;;;;;0.90;0.90;;;17.90;99.90;;;;;;5044374;28;20207;-84
2023/10/26 01:34:39;;;;;;;0.30;0.20;;;17.80;99.90;;;;;;5046226;28;20203;-80
2023/10/26 01:37:05;;;;;;;0.30;0.20;;;17.90;99.90;;;;;;5044556;28;20225;-85
2023/10/26 01:39:32;;;;;;;0.30;0.20;;;17.90;99.90;;;;;;5044816;28;20563;-86
2023/10/26 01:41:58;;;;;;;0.30;0.20;;;17.90;99.90;;;;;;5044317;28;20432;-85
2023/10/26 01:44:23;;;;;;;0.30;0.20;;;17.90;99.90;;;;;;5046122;28;20437;-80
2023/10/26 01:46:50;;;;;;;0.30;0.20;;;17.90;99.90;;;;;;5044660;28;20238;-85
2023/10/26 01:49:15;;;;;;;0.30;0.30;;;18.00;99.90;;;;;;5045873;28;20173;-86
2023/10/26 01:51:41;;;;;;;0.30;0.20;;;18.00;99.90;;;;;;5044642;28;20436;-80
2023/10/26 01:54:07;;;;;;;0.30;0.20;;;18.00;99.90;;;;;;5044404;28;20275;-85
2023/10/26 01:56:32;;;;;;;0.30;0.20;;;18.00;99.90;;;;;;5046091;28;20192;-83
2023/10/26 01:58:58;;;;;;;0.30;0.20;;;18.00;99.90;;;;;;5045975;28;20179;-80
2023/10/26 02:01:24;;;;;;;0.43;0.43;;;18.00;99.90;;;;;;5045881;28;20545;-85
2023/10/26 02:03:50;;;;;;;0.30;0.20;;;18.00;99.90;;;;;;5045998;28;20179;-80
2023/10/26 02:06:15;;;;;;;13.53;1.60;;;18.10;99.90;;;;;;5045066;28;20510;-79
2023/10/26 02:08:41;;;;;;;0.30;0.20;;;18.00;99.90;;;;;;5044675;28;20529;-79
2023/10/26 02:11:07;;;;;;;0.30;0.20;;;18.00;99.90;;;;;;5045917;28;20414;-85
2023/10/26 02:13:35;;;;;;;0.30;0.20;;;18.00;99.90;;;;;;5046986;28;20230;-79
2023/10/26 02:16:01;;;;;;;0.30;0.20;;;18.00;99.90;;;;;;5049763;28;20443;-84
2023/10/26 02:18:28;;;;;;;0.30;0.20;;;18.00;99.90;;;;;;5049734;28;20514;-85
2023/10/26 02:20:54;;;;;;;0.30;0.20;;;17.90;99.90;;;;;;5048160;28;21102;-79
2023/10/26 02:23:21;;;;;;;0.30;0.20;;;17.90;99.90;;;;;;5049541;28;20439;-83
2023/10/26 02:25:47;;;;;;;0.30;0.20;;;18.00;99.90;;;;;;5047591;28;20230;-84
2023/10/26 02:28:15;;;;;;;0.30;0.20;;;18.00;99.90;;;;;;5047459;28;20597;-79
2023/10/26 02:30:45;;;;;;;0.30;0.20;;;18.00;99.90;;;;;;5049679;28;20851;-85
2023/10/26 02:33:10;;;;;;;0.30;0.20;;;18.00;99.90;;;;;;5049071;28;20408;-79
2023/10/26 02:35:39;;;;;;;0.30;0.30;;;18.00;99.90;;;;;;5049267;28;20462;-84
2023/10/26 02:38:05;;;;;;;0.30;0.20;;;18.00;99.90;;;;;;5049118;28;20175;-79
2023/10/26 02:40:30;;;;;;;0.40;0.40;;;18.00;99.90;;;;;;5049120;28;20439;-79
2023/10/26 02:42:56;;;;;;;0.30;0.20;;;18.00;99.90;;;;;;5049339;28;20181;-79
2023/10/26 02:45:21;;;;;;;0.77;0.77;;;18.00;99.90;;;;;;5049062;28;20234;-79
2023/10/26 02:47:47;;;;;;;0.30;0.20;;;18.00;99.90;;;;;;5049037;28;20442;-79
2023/10/26 02:50:13;;;;;;;0.30;0.20;;;18.00;99.90;;;;;;5047520;28;20201;-79
2023/10/26 02:52:39;;;;;;;1.90;1.80;;;18.00;99.90;;;;;;5048461;28;20180;-80
2023/10/26 02:55:06;;;;;;;0.30;0.20;;;18.10;99.90;;;;;;5048969;28;20666;-79
2023/10/26 02:57:31;;;;;;;0.30;0.20;;;18.10;99.90;;;;;;5048869;28;20400;-84
2023/10/26 02:59:57;;;;;;;0.30;0.20;;;18.10;99.90;;;;;;5049042;28;20787;-82
2023/10/26 03:02:23;;;;;;;0.30;0.20;;;18.10;99.90;;;;;;5048560;28;20580;-79
2023/10/26 03:04:49;;;;;;;1.70;1.00;;;18.10;99.90;;;;;;5047686;28;20211;-84
2023/10/26 03:07:22;;;;;;;0.77;0.70;;;18.10;99.90;;;;;;5046963;28;20449;-79
2023/10/26 03:09:50;;;;;;;0.30;0.20;;;18.10;99.90;;;;;;5048966;28;20578;-81
2023/10/26 03:12:17;;;;;;;0.33;0.30;;;18.00;99.90;;;;;;5046637;28;20753;-84
2023/10/26 03:14:43;;;;;;;1.03;1.03;;;18.00;99.90;;;;;;5048777;28;20782;-79
2023/10/26 03:17:09;;;;;;;0.30;0.30;;;18.00;99.90;;;;;;5046963;28;20412;-84
2023/10/26 03:19:35;;;;;;;0.30;0.20;;;18.00;99.90;;;;;;5047576;28;20201;-79
2023/10/26 03:22:00;;;;;;;0.30;0.20;;;18.00;99.90;;;;;;5046743;28;20502;-78
2023/10/26 03:24:26;;;;;;;0.30;0.20;;;18.00;99.90;;;;;;5048283;28;20198;-79
2023/10/26 03:26:52;;;;;;;0.30;0.20;;;18.00;99.90;;;;;;5047191;28;20755;-79
2023/10/26 03:29:17;;;;;;;0.30;0.20;;;18.00;99.90;;;;;;5046017;28;20185;-79
2023/10/26 03:31:44;;;;;;;0.30;0.20;;;18.00;99.90;;;;;;5048292;28;20179;-84
2023/10/26 03:34:09;;;;;;;0.30;0.20;;;18.00;99.90;;;;;;5046685;28;20189;-79
2023/10/26 03:36:35;;;;;;;0.30;0.20;;;18.00;99.90;;;;;;5048156;28;20518;-79
2023/10/26 03:39:00;;;;;;;0.30;0.20;;;17.90;99.90;;;;;;5047410;28;20670;-85
2023/10/26 03:41:26;;;;;;;0.30;0.30;;;17.90;99.90;;;;;;5047926;28;20635;-79
2023/10/26 03:43:51;;;;;;;0.30;0.20;;;17.90;99.90;;;;;;5047913;28;20178;-79
2023/10/26 03:46:17;;;;;;;0.30;0.20;;;17.90;99.90;;;;;;5047563;28;20225;-79
2023/10/26 03:48:43;;;;;;;0.30;0.20;;;17.90;99.90;;;;;;5046608;28;20559;-79
2023/10/26 03:51:08;;;;;;;0.30;0.20;;;17.90;99.90;;;;;;5046582;28;20206;-80
2023/10/26 03:53:34;;;;;;;0.30;0.20;;;17.90;99.90;;;;;;5046149;28;20611;-82
2023/10/26 03:56:01;;;;;;;0.40;0.40;;;17.80;99.90;;;;;;5046387;28;20203;-84
2023/10/26 03:58:27;;;;;;;0.80;0.80;;;17.80;99.90;;;;;;5045855;28;20183;-84
2023/10/26 04:00:52;;;;;;;0.30;0.20;;;17.80;99.90;;;;;;5047212;28;21274;-84
2023/10/26 04:03:18;;;;;;;0.30;0.20;;;17.80;99.90;;;;;;5046019;28;20210;-79
2023/10/26 04:05:44;;;;;;;0.30;0.20;;;17.80;99.90;;;;;;5047732;28;20215;-88
2023/10/26 04:08:10;;;;;;;0.30;0.20;;;17.80;99.90;;;;;;5047477;28;20201;-87
2023/10/26 04:10:36;;;;;;;0.30;0.20;;;17.70;99.90;;;;;;5046574;28;20479;-78
2023/10/26 04:13:02;;;;;;;0.30;0.30;;;17.70;99.90;;;;;;5046929;28;20227;-78
2023/10/26 04:15:27;;;;;;;0.30;0.20;;;17.70;99.90;;;;;;5047751;28;20788;-78
2023/10/26 04:17:53;;;;;;;0.30;0.20;;;17.60;99.90;;;;;;5045809;28;20404;-84
2023/10/26 04:20:20;;;;;;;0.30;0.20;;;17.60;99.90;;;;;;5047287;28;20207;-78
2023/10/26 04:22:46;;;;;;;0.87;0.87;;;17.50;99.90;;;;;;5047167;28;20184;-84
2023/10/26 04:25:12;;;;;;;0.30;0.20;;;17.50;99.90;;;;;;5047528;28;20463;-84
2023/10/26 04:27:38;;;;;;;0.30;0.20;;;17.50;99.90;;;;;;5044070;28;20420;-78
2023/10/26 04:30:05;;;;;;;0.50;0.50;;;17.50;99.90;;;;;;5045032;28;20935;-84
2023/10/26 04:32:30;;;;;;;0.30;0.20;;;17.50;99.90;;;;;;5042365;28;20209;-78
2023/10/26 04:34:56;;;;;;;0.30;0.20;;;17.40;99.90;;;;;;5045191;28;20499;-85
2023/10/26 04:37:21;;;;;;;0.40;0.40;;;17.50;99.90;;;;;;5042787;28;20174;-79
2023/10/26 04:39:47;;;;;;;0.30;0.20;;;17.40;99.90;;;;;;5045358;28;20456;-79
2023/10/26 04:42:13;;;;;;;0.30;0.20;;;17.40;99.90;;;;;;5044658;28;20257;-78
2023/10/26 04:44:39;;;;;;;0.50;0.40;;;17.30;99.90;;;;;;5044356;28;20267;-83
2023/10/26 04:47:05;;;;;;;1.17;0.90;;;17.30;99.90;;;;;;5046423;28;20210;-78
2023/10/26 04:49:33;;;;;;;0.70;0.70;;;17.30;99.90;;;;;;5046695;28;20489;-78
2023/10/26 04:51:59;;;;;;;0.30;0.30;;;17.30;99.90;;;;;;5046577;28;20936;-78
2023/10/26 04:54:27;;;;;;;0.50;0.50;;;17.30;99.90;;;;;;5044332;28;20454;-78
2023/10/26 04:56:53;;;;;;;0.30;0.20;;;17.30;99.90;;;;;;5039796;28;20847;-80
2023/10/26 04:59:19;;;;;;;0.33;0.30;;;17.30;99.90;;;;;;5017080;28;20439;-78
2023/10/26 05:01:45;;;;;;;0.87;0.87;;;17.30;99.90;;;;;;5025425;28;20473;-78
2023/10/26 05:04:10;;;;;;;0.30;0.20;;;17.30;99.90;;;;;;5045158;28;20178;-85
2023/10/26 05:06:37;;;;;;;0.30;0.20;;;17.30;99.90;;;;;;5044844;28;20215;-79
2023/10/26 05:09:03;;;;;;;0.30;0.20;;;17.20;99.90;;;;;;5045600;28;20177;-79
2023/10/26 05:11:29;;;;;;;0.30;0.20;;;17.20;99.90;;;;;;5043876;28;20994;-84
2023/10/26 05:13:55;;;;;;;0.30;0.20;;;17.20;99.90;;;;;;5043580;28;20474;-78
2023/10/26 05:16:21;;;;;;;0.40;0.20;;;17.20;99.90;;;;;;5044446;28;20507;-78
2023/10/26 05:18:46;;;;;;;0.60;0.60;;;17.10;99.90;;;;;;5045592;28;20261;-78
2023/10/26 05:21:12;;;;;;;0.30;0.20;;;17.10;99.90;;;;;;5045642;28;20284;-78
2023/10/26 05:23:39;;;;;;;0.30;0.20;;;17.00;99.90;;;;;;5045259;28;20207;-82
2023/10/26 05:26:05;;;;;;;1.70;1.60;;;17.00;99.90;;;;;;5043272;28;20771;-78
2023/10/26 05:28:31;;;;;;;0.40;0.20;;;17.00;99.90;;;;;;5044065;28;20407;-78
2023/10/26 05:30:57;;;;;;;0.57;0.50;;;17.00;99.90;;;;;;5045737;28;20446;-78
2023/10/26 05:33:23;;;;;;;15.40;14.20;;;16.90;99.90;;;;;;5045042;28;20177;-83
2023/10/26 05:35:48;;;;;;;2.17;2.07;;;16.90;99.90;;;;;;5044392;28;20194;-84
2023/10/26 05:38:18;;;;;;;0.30;0.20;;;16.90;99.90;;;;;;5044043;28;20839;-78
2023/10/26 05:40:58;;;;;;;0.30;0.20;;;16.80;99.90;;;;;;5044984;28;20534;-78
2023/10/26 05:43:24;;;;;;;0.30;0.20;;;16.80;99.90;;;;;;5041612;28;20790;-78
2023/10/26 05:45:50;;;;;;;0.77;0.77;;;16.80;99.90;;;;;;5041216;28;20485;-85
2023/10/26 05:48:18;;;;;;;0.30;0.20;;;16.80;99.90;;;;;;5041604;28;20178;-85
2023/10/26 05:50:44;;;;;;;0.30;0.20;;;16.80;99.90;;;;;;5066570;28;20462;-78
2023/10/26 05:53:10;;;;;;;0.30;0.30;;;16.80;99.90;;;;;;5040666;28;20423;-82
2023/10/26 05:55:39;;;;;;;0.30;0.20;;;16.80;99.90;;;;;;5041210;28;20202;-78
2023/10/26 05:58:05;;;;;;;0.73;0.73;;;16.80;99.90;;;;;;5033149;28;20411;-78
2023/10/26 06:00:31;;;;;;;0.30;0.20;;;16.80;99.90;;;;;;5034095;28;20458;-84
2023/10/26 06:02:58;;;;;;;0.30;0.20;;;16.80;99.90;;;;;;5035977;28;20186;-78
2023/10/26 06:05:23;;;;;;;1.43;1.40;;;16.80;99.90;;;;;;5041991;28;21023;-78
2023/10/26 06:07:50;;;;;;;0.30;0.20;;;16.80;99.90;;;;;;5039783;28;20412;-85
2023/10/26 06:10:16;;;;;;;0.80;0.80;;;16.80;99.90;;;;;;5038211;28;20404;-84
2023/10/26 06:12:41;;;;;;;0.30;0.20;;;16.80;99.90;;;;;;5029494;28;20473;-84
2023/10/26 06:15:08;;;;;;;0.30;0.20;;;16.80;99.90;;;;;;5034575;28;20880;-85
2023/10/26 06:17:34;;;;;;;0.30;0.20;;;16.90;99.90;;;;;;5031811;28;20178;-85
2023/10/26 06:19:59;;;;;;;0.30;0.30;;;17.00;99.90;;;;;;5036374;28;20537;-85
2023/10/26 06:22:25;;;;;;;0.30;0.20;;;17.00;99.90;;;;;;5038237;28;20443;-83
2023/10/26 06:24:51;;;;;;;0.50;0.50;;;17.10;99.90;;;;;;5034694;28;20807;-78
2023/10/26 06:27:16;;;;;;;0.40;0.37;;;17.10;99.90;;;;;;5027848;28;20424;-79
2023/10/26 06:29:44;;;;;;;1.33;1.33;;;17.10;99.90;;;;;;5041099;28;20293;-84
2023/10/26 06:32:11;;;;;;;0.30;0.20;;;17.20;99.90;;;;;;5040772;28;20624;-84
2023/10/26 06:34:37;;;;;;;0.30;0.20;;;17.20;99.90;;;;;;5041426;28;20440;-79
2023/10/26 06:37:03;;;;;;;0.30;0.20;;;17.20;99.90;;;;;;5040834;28;20775;-84
2023/10/26 06:39:28;;;;;;;0.40;0.20;;;17.20;99.90;;;;;;5039682;28;20286;-85
2023/10/26 06:41:56;;;;;;;0.30;0.20;;;17.20;99.90;;;;;;5033029;28;20716;-85
2023/10/26 06:44:21;;;;;;;0.50;0.50;;;17.20;99.90;;;;;;5040117;28;20195;-85
2023/10/26 06:46:47;;;;;;;0.30;0.20;;;17.30;99.90;;;;;;5027528;28;21161;-85
2023/10/26 06:49:13;;;;;;;0.30;0.30;;;17.30;99.90;;;;;;5033243;28;20254;-79
2023/10/26 06:51:38;;;;;;;0.30;0.20;;;17.40;99.90;;;;;;5036646;28;20183;-85
2023/10/26 06:54:04;;;;;;;0.67;0.67;;;17.40;99.90;;;;;;5029117;28;20631;-85
2023/10/26 06:56:29;;;;;;;0.30;0.30;;;17.40;99.90;;;;;;5034128;28;20311;-78
2023/10/26 06:58:55;;;;;;;0.30;0.30;;;17.40;99.90;;;;;;5057849;28;20660;-78
2023/10/26 07:01:21;;;;;;;0.30;0.20;;;17.40;99.90;;;;;;5037509;28;20787;-78
2023/10/26 07:03:48;;;;;;;0.30;0.20;;;17.50;99.90;;;;;;5039946;28;20224;-82
2023/10/26 07:06:13;;;;;;;0.40;0.40;;;17.60;99.90;;;;;;5035135;28;20238;-78
2023/10/26 07:08:39;;;;;;;0.30;0.20;;;17.70;99.90;;;;;;5043380;28;20419;-78
2023/10/26 07:11:08;;;;;;;0.30;0.20;;;17.70;99.90;;;;;;5036950;28;20563;-85
2023/10/26 07:13:34;;;;;;;0.30;0.20;;;17.80;99.90;;;;;;5032889;28;20223;-79
2023/10/26 07:16:00;;;;;;;0.30;0.20;;;17.80;99.90;;;;;;5038315;28;21127;-79
2023/10/26 07:18:27;;;;;;;0.30;0.30;;;17.90;99.90;;;;;;5037464;28;21141;-85
2023/10/26 07:20:53;;;;;;;0.30;0.20;;;18.00;99.90;;;;;;5036601;28;20988;-79
2023/10/26 07:23:19;;;;;;;0.30;0.20;;;18.10;99.90;;;;;;5037307;28;20444;-84
2023/10/26 07:25:45;;;;;;;0.30;0.20;;;18.10;99.90;;;;;;5042014;28;20574;-79
2023/10/26 07:28:11;;;;;;;0.30;0.20;;;18.30;99.90;;;;;;5038678;28;20700;-85
2023/10/26 07:30:43;;;;;;;0.30;0.20;;;18.40;99.90;;;;;;5039073;28;20214;-85
2023/10/26 07:33:09;;;;;;;0.30;0.20;;;18.40;99.90;;;;;;5038334;28;20437;-85
2023/10/26 07:35:40;;;;;;;0.40;0.40;;;18.50;99.90;;;;;;5040246;28;20451;-78
2023/10/26 07:38:09;;;;;;;0.30;0.20;;;18.60;99.90;;;;;;5043758;28;20496;-85
2023/10/26 07:40:37;;;;;;;2.00;1.90;;;18.70;99.90;;;;;;5068081;28;20983;-79
2023/10/26 07:43:04;;;;;;;0.30;0.20;;;18.80;99.90;;;;;;5040616;28;20890;-84
2023/10/26 07:45:30;;;;;;;0.70;0.70;;;18.90;99.90;;;;;;5034070;28;20804;-85
2023/10/26 07:47:56;;;;;;;0.83;0.83;;;19.10;99.90;;;;;;5035003;28;20475;-79
2023/10/26 07:50:22;;;;;;;0.30;0.20;;;19.10;99.90;;;;;;5040035;28;20204;-79
2023/10/26 07:52:48;;;;;;;0.40;0.20;;;19.30;99.90;;;;;;5041204;28;20565;-84
2023/10/26 07:55:14;;;;;;;0.40;0.20;;;19.60;99.90;;;;;;5043184;28;20446;-79
2023/10/26 07:57:41;;;;;;;0.30;0.20;;;19.90;99.90;;;;;;5040906;28;20423;-84
2023/10/26 08:00:08;;;;;;;0.40;0.30;;;20.30;99.90;;;;;;5040202;28;20234;-84
2023/10/26 08:02:34;;;;;;;0.30;0.20;;;20.50;99.90;;;;;;5034269;28;20422;-84
2023/10/26 08:05:00;;;;;;;0.30;0.20;;;20.80;99.90;;;;;;5052851;28;20460;-85
2023/10/26 08:07:25;;;;;;;0.30;0.20;;;21.00;99.90;;;;;;5057930;28;20771;-80
2023/10/26 08:09:51;;;;;;;0.90;0.90;;;21.20;99.90;;;;;;5040792;28;20205;-84
2023/10/26 08:12:17;;;;;;;0.30;0.30;;;21.50;99.90;;;;;;5039467;28;20265;-79
2023/10/26 08:14:45;;;;;;;0.30;0.20;;;21.60;99.90;;;;;;5058344;28;20208;-84
2023/10/26 08:17:11;;;;;;;0.30;0.20;;;21.50;99.90;;;;;;5033494;28;20439;-78
2023/10/26 08:19:38;;;;;;;0.30;0.20;;;21.30;99.90;;;;;;5041630;28;20977;-85
2023/10/26 08:22:04;;;;;;;0.30;0.27;;;21.20;99.90;;;;;;5038830;28;20678;-78
2023/10/26 08:24:31;;;;;;;0.30;0.20;;;21.20;99.90;;;;;;5041891;28;20450;-78
2023/10/26 08:26:57;;;;;;;0.30;0.23;;;21.10;99.90;;;;;;5070708;28;21022;-84
2023/10/26 08:29:24;;;;;;;0.30;0.20;;;21.20;99.90;;;;;;5051132;28;20449;-85
2023/10/26 08:31:50;;;;;;;0.30;0.20;;;21.20;99.90;;;;;;5044837;28;20193;-84
2023/10/26 08:34:15;;;;;;;0.30;0.20;;;21.20;99.90;;;;;;5037644;28;20431;-79
2023/10/26 08:36:41;;;;;;;0.30;0.20;;;21.20;99.90;;;;;;5062780;28;20186;-84
2023/10/26 08:39:07;;;;;;;0.30;0.20;;;21.10;99.90;;;;;;5038387;28;20323;-79
2023/10/26 08:41:33;;;;;;;0.30;0.20;;;21.10;99.90;;;;;;5038662;28;20650;-84
2023/10/26 08:44:00;;;;;;;0.30;0.20;;;21.20;99.90;;;;;;5039759;28;20433;-83
2023/10/26 08:46:27;;;;;;;0.30;0.20;;;21.10;99.90;;;;;;5039656;28;20831;-84
2023/10/26 08:48:56;;;;;;;0.30;0.20;;;21.10;99.90;;;;;;5041211;28;20457;-85
2023/10/26 08:51:21;;;;;;;0.30;0.20;;;21.10;99.90;;;;;;5036839;28;20542;-78
2023/10/26 08:53:47;;;;;;;0.30;0.20;;;21.00;99.90;;;;;;5040684;28;20465;-78
2023/10/26 08:56:17;;;;;;;0.30;0.20;;;20.90;99.90;;;;;;5024406;28;20206;-80
2023/10/26 08:58:43;;;;;;;0.30;0.20;;;20.90;99.90;;;;;;5029437;28;20265;-79
2023/10/26 09:01:08;;;;;;;0.30;0.20;;;20.90;99.90;;;;;;5033867;28;20620;-78
2023/10/26 09:03:37;;;;;;;0.37;0.30;;;20.90;99.90;;;;;;5033249;28;20236;-83
2023/10/26 09:06:03;;;;;;;0.30;0.20;;;21.00;99.90;;;;;;5032395;28;20218;-79
2023/10/26 09:08:30;;;;;;;0.30;0.20;;;21.00;99.90;;;;;;5028437;28;20427;-79
2023/10/26 09:10:56;;;;;;;0.30;0.20;;;20.90;99.90;;;;;;5027555;28;20695;-78
2023/10/26 09:13:26;;;;;;;0.30;0.20;;;20.90;99.90;;;;;;5038358;28;20729;-84
2023/10/26 09:15:55;;;;;;;0.30;0.20;;;20.80;99.90;;;;;;5034019;28;20199;-79
2023/10/26 09:18:22;;;;;;;0.30;0.20;;;20.80;99.90;;;;;;5029761;28;20447;-84
2023/10/26 09:21:03;;;;;;;0.30;0.20;;;20.80;99.90;;;;;;5026003;28;20463;-84
2023/10/26 09:23:30;;;;;;;0.30;0.20;;;20.80;99.90;;;;;;5029202;28;20422;-84
2023/10/26 09:26:00;;;;;;;0.30;0.30;;;20.80;99.90;;;;;;5027175;28;20875;-85
2023/10/26 09:28:26;;;;;;;0.30;0.20;;;20.80;99.90;;;;;;5028727;28;20476;-78
2023/10/26 09:31:02;;;;;;;0.30;0.20;;;20.80;99.90;;;;;;5031713;28;20999;-78
2023/10/26 09:33:28;;;;;;;0.30;0.20;;;20.80;99.90;;;;;;5034805;28;20276;-79
2023/10/26 09:35:53;;;;;;;0.30;0.20;;;20.80;99.90;;;;;;5035016;28;20542;-78
2023/10/26 09:38:39;;;;;;;0.30;0.20;;;20.80;99.90;;;;;;5023345;28;20182;-83
2023/10/26 09:41:16;;;;;;;0.30;0.20;;;20.90;99.90;;;;;;5014676;28;20202;-85
2023/10/26 09:43:43;;;;;;;0.67;0.67;;;20.90;99.90;;;;;;5017535;28;20403;-78
2023/10/26 09:46:12;;;;;;;1.03;1.03;;;20.90;99.90;;;;;;5019443;28;20559;-84
2023/10/26 09:48:38;;;;;;;0.30;0.20;;;21.00;99.90;;;;;;5031125;28;20416;-79
2023/10/26 09:51:04;;;;;;;0.30;0.20;;;21.00;99.90;;;;;;5024856;28;20457;-84
2023/10/26 09:53:36;;;;;;;0.30;0.20;;;21.00;99.90;;;;;;5032320;28;20431;-84
2023/10/26 09:56:04;;;;;;;0.30;0.20;;;21.00;99.90;;;;;;5037886;28;20442;-85
2023/10/26 09:58:39;;;;;;;0.30;0.20;;;21.10;99.90;;;;;;5034515;28;20430;-84
2023/10/26 10:01:37;;;;;;;0.30;0.20;;;21.20;99.90;;;;;;5039097;28;20449;-84
2023/10/26 10:04:05;;;;;;;0.30;0.20;;;21.20;99.90;;;;;;5032921;28;20429;-85
2023/10/26 10:06:44;;;;;;;0.30;0.27;;;21.30;99.90;;;;;;5038561;28;20543;-79
2023/10/26 10:09:12;;;;;;;0.30;0.20;;;21.40;99.90;;;;;;5039023;28;20461;-80
2023/10/26 10:11:38;;;;;;;0.30;0.20;;;21.40;99.90;;;;;;5038021;28;20974;-85
2023/10/26 10:14:04;;;;;;;0.30;0.30;;;21.50;99.90;;;;;;5038178;28;20542;-79
2023/10/26 10:16:36;;;;;;;0.30;0.30;;;21.50;99.90;;;;;;5038705;28;20437;-85
2023/10/26 10:19:23;;;;;;;0.30;0.20;;;21.50;99.90;;;;;;5049981;28;20419;-85
2023/10/26 10:21:51;;;;;;;0.30;0.20;;;21.50;99.90;;;;;;5051331;28;20433;-85
2023/10/26 10:24:44;;;;;;;0.30;0.20;;;21.40;99.90;;;;;;5044462;28;20438;-85
2023/10/26 10:27:12;;;;;;;0.30;0.20;;;21.40;99.90;;;;;;5049046;28;20494;-85
2023/10/26 10:29:39;;;;;;;0.30;0.20;;;21.30;99.90;;;;;;5034425;28;20438;-85
2023/10/26 10:32:05;;;;;;;0.73;0.73;;;21.30;99.90;;;;;;5041963;28;20787;-79
2023/10/26 10:34:45;;;;;;;0.30;0.20;;;21.30;99.90;;;;;;5042611;28;20614;-79
2023/10/26 10:37:17;;;;;;;0.30;0.20;;;21.30;99.90;;;;;;5044034;28;20415;-85
2023/10/26 10:40:12;;;;;;;0.30;0.20;;;21.20;99.90;;;;;;5040667;28;20442;-79
2023/10/26 10:42:39;;;;;;;0.30;0.20;;;21.20;99.90;;;;;;5039985;28;20681;-79
2023/10/26 10:45:11;;;;;;;0.90;0.87;;;21.20;99.90;;;;;;5040684;28;21010;-85
2023/10/26 10:47:38;;;;;;;0.30;0.20;;;21.30;99.90;;;;;;5040590;28;20423;-85
2023/10/26 10:50:21;;;;;;;0.30;0.20;;;21.30;99.90;;;;;;5039822;28;20763;-85
2023/10/26 10:52:48;;;;;;;0.30;0.20;;;21.30;99.90;;;;;;5043008;28;20406;-79
2023/10/26 10:55:28;;;;;;;0.30;0.20;;;21.30;99.90;;;;;;5041454;28;20508;-79
2023/10/26 10:58:02;;;;;;;0.30;0.20;;;21.30;99.90;;;;;;5063123;28;20478;-85
2023/10/26 11:00:40;;;;;;;0.30;0.20;;;21.40;99.90;;;;;;5036854;28;20544;-80
2023/10/26 11:03:05;;;;;;;0.30;0.20;;;21.40;99.90;;;;;;5041342;28;20438;-79
2023/10/26 11:05:40;;;;;;;0.30;0.20;;;21.40;99.90;;;;;;5040318;28;21004;-79
2023/10/26 11:08:08;;;;;;;0.30;0.20;;;21.30;99.90;;;;;;5064502;28;20182;-85
2023/10/26 11:10:34;;;;;;;0.30;0.20;;;21.30;99.90;;;;;;5043314;28;20496;-86
2023/10/26 11:13:00;;;;;;;0.30;0.20;;;21.40;99.90;;;;;;5047949;28;20509;-85
2023/10/26 11:15:36;;;;;;;2.63;1.70;;;21.40;99.90;;;;;;5045334;28;20480;-79
2023/10/26 11:18:04;;;;;;;0.30;0.20;;;21.30;99.90;;;;;;5044789;28;20515;-84
2023/10/26 11:20:47;;;;;;;0.30;0.20;;;21.30;99.90;;;;;;5060762;28;20451;-85
2023/10/26 11:23:16;;;;;;;0.30;0.20;;;21.30;99.90;;;;;;5036283;28;21186;-85
2023/10/26 11:25:44;;;;;;;0.30;0.20;;;21.40;99.90;;;;;;5035227;28;20474;-79
2023/10/26 11:28:10;;;;;;;0.30;0.20;;;21.50;99.90;;;;;;5038464;28;20754;-85
2023/10/26 11:30:48;;;;;;;0.30;0.20;;;21.40;99.90;;;;;;5044428;28;20450;-80
2023/10/26 11:33:33;;;;;;;0.30;0.20;;;21.40;99.90;;;;;;5055521;28;20426;-84
2023/10/26 11:35:59;;;;;;;0.30;0.20;;;21.30;99.90;;;;;;5034020;28;20459;-79
2023/10/26 11:38:26;;;;;;;0.30;0.20;;;21.30;99.90;;;;;;5044626;28;20434;-79
2023/10/26 11:40:52;;;;;;;0.30;0.20;;;21.40;99.90;;;;;;5042013;28;20494;-85
2023/10/26 11:43:31;;;;;;;0.30;0.20;;;21.40;99.90;;;;;;5037621;28;20665;-79
2023/10/26 11:45:56;;;;;;;0.30;0.20;;;21.50;99.90;;;;;;5038456;28;20465;-84
2023/10/26 11:48:31;;;;;;;0.30;0.20;;;21.50;99.90;;;;;;5034918;28;20427;-84
2023/10/26 11:50:57;;;;;;;0.30;0.20;;;21.40;99.90;;;;;;5057855;28;20456;-85
2023/10/26 11:53:23;;;;;;;0.30;0.20;;;21.40;99.90;;;;;;5037025;28;21006;-85
2023/10/26 11:55:52;;;;;;;0.30;0.20;;;21.30;99.90;;;;;;5067640;28;20463;-80
2023/10/26 11:58:18;;;;;;;0.30;0.20;;;21.40;99.90;;;;;;5041636;28;20506;-79
2023/10/26 12:00:44;;;;;;;0.30;0.20;;;21.40;99.90;;;;;;5043974;28;20912;-84
2023/10/26 12:03:10;;;;;;;0.40;0.30;;;21.40;99.90;;;;;;5043133;28;20186;-80
2023/10/26 12:05:36;;;;;;;0.30;0.20;;;21.40;99.90;;;;;;5042840;28;20505;-86
2023/10/26 12:08:02;;;;;;;0.30;0.20;;;21.40;99.90;;;;;;5032234;28;20991;-84
2023/10/26 12:10:28;;;;;;;0.30;0.20;;;21.50;99.90;;;;;;5041229;28;20399;-80
2023/10/26 12:12:57;;;;;;;0.30;0.20;;;21.40;99.90;;;;;;5039429;28;20471;-80
2023/10/26 12:15:23;;;;;;;0.30;0.20;;;21.40;99.90;;;;;;5032027;28;20195;-80
2023/10/26 12:17:49;;;;;;;0.80;0.80;;;21.30;99.90;;;;;;5043758;28;20450;-80
2023/10/26 12:20:15;;;;;;;0.30;0.20;;;21.30;99.90;;;;;;5042345;28;20543;-79
2023/10/26 12:22:41;;;;;;;0.30;0.20;;;21.30;99.90;;;;;;5043250;28;20496;-80
2023/10/26 12:25:07;;;;;;;0.30;0.20;;;21.30;99.90;;;;;;5067066;28;20450;-79
2023/10/26 12:27:34;;;;;;;0.30;0.20;;;21.30;99.90;;;;;;5038538;28;20426;-80
2023/10/26 12:30:00;;;;;;;0.40;0.30;;;21.30;99.90;;;;;;5039179;28;20539;-80
2023/10/26 12:32:26;;;;;;;0.30;0.30;;;21.30;99.90;;;;;;5030187;28;20643;-84
2023/10/26 12:34:52;;;;;;;0.30;0.20;;;21.40;99.90;;;;;;5032947;28;20442;-85
2023/10/26 12:37:18;;;;;;;13.90;13.00;;;21.40;99.90;;;;;;5064574;28;20972;-84
2023/10/26 12:39:44;;;;;;;0.30;0.20;;;21.50;99.90;;;;;;5030616;28;20454;-80
2023/10/26 12:42:09;;;;;;;0.77;0.77;;;21.50;99.90;;;;;;5037214;28;20426;-79
2023/10/26 12:44:36;;;;;;;0.30;0.20;;;21.60;99.90;;;;;;5039324;28;20236;-85
2023/10/26 12:47:01;;;;;;;0.30;0.20;;;21.70;99.90;;;;;;5042270;28;20220;-85